sensor_id;sensor_type;location;lat;lon;timestamp;pressure;altitude;pressure_sealevel;temperature;humidity
63700;BME280;49845;47.130;142.766;2023-02-12T00:01:17;100898.47;;;-11.17;78.40
63700;BME280;49845;47.130;142.766;2023-02-12T00:03:48;100973.78;;;-10.59;78.51
63700;BME280;49845;47.130;142.766;2023-02-12T00:06:23;100979.81;;;-10.47;78.49
63700;BME280;49845;47.130;142.766;2023-02-12T00:08:56;100943.47;;;-10.59;78.26
63700;BME280;49845;47.130;142.766;2023-02-12T00:11:28;100988.25;;;-10.24;78.09
63700;BME280;49845;47.130;142.766;2023-02-12T00:14:00;100974.25;;;-10.21;77.36
63700;BME280;49845;47.130;142.766;2023-02-12T00:16:31;100977.59;;;-10.10;77.88
63700;BME280;49845;47.130;142.766;2023-02-12T00:19:01;100972.91;;;-9.83;77.80
63700;BME280;49845;47.130;142.766;2023-02-12T00:21:33;100980.63;;;-9.70;77.47
63700;BME280;49845;47.130;142.766;2023-02-12T00:24:04;100927.13;;;-9.86;76.78
63700;BME280;49845;47.130;142.766;2023-02-12T00:26:35;100871.59;;;-10.30;76.05
63700;BME280;49845;47.130;142.766;2023-02-12T00:29:05;100973.56;;;-9.74;76.22
63700;BME280;49845;47.130;142.766;2023-02-12T00:31:37;100887.19;;;-10.24;75.83
63700;BME280;49845;47.130;142.766;2023-02-12T00:34:09;100954.34;;;-9.94;75.33
63700;BME280;49845;47.130;142.766;2023-02-12T00:36:42;100963.59;;;-9.94;75.86
63700;BME280;49845;47.130;142.766;2023-02-12T00:39:12;100970.19;;;-9.96;76.18
63700;BME280;49845;47.130;142.766;2023-02-12T00:41:43;100964.97;;;-9.76;76.42
63700;BME280;49845;47.130;142.766;2023-02-12T00:44:13;100961.72;;;-9.75;75.65
63700;BME280;49845;47.130;142.766;2023-02-12T00:46:44;100959.09;;;-9.65;75.84
63700;BME280;49845;47.130;142.766;2023-02-12T00:49:14;100970.59;;;-9.46;75.18
63700;BME280;49845;47.130;142.766;2023-02-12T00:51:48;100967.06;;;-9.48;75.22
63700;BME280;49845;47.130;142.766;2023-02-12T00:54:18;100964.00;;;-9.44;74.66
63700;BME280;49845;47.130;142.766;2023-02-12T00:56:49;100949.69;;;-9.44;74.60
63700;BME280;49845;47.130;142.766;2023-02-12T00:59:19;100958.75;;;-9.24;74.80
63700;BME280;49845;47.130;142.766;2023-02-12T01:01:51;100942.28;;;-9.07;74.76
63700;BME280;49845;47.130;142.766;2023-02-12T01:04:22;100907.91;;;-9.27;73.98
63700;BME280;49845;47.130;142.766;2023-02-12T01:06:54;100951.09;;;-8.90;74.53
63700;BME280;49845;47.130;142.766;2023-02-12T01:09:24;100935.03;;;-8.91;73.96
63700;BME280;49845;47.130;142.766;2023-02-12T01:11:55;100956.84;;;-8.81;73.84
63700;BME280;49845;47.130;142.766;2023-02-12T01:14:26;100952.41;;;-8.72;74.24
63700;BME280;49845;47.130;142.766;2023-02-12T01:16:57;100955.50;;;-8.76;73.52
63700;BME280;49845;47.130;142.766;2023-02-12T01:19:27;100944.03;;;-8.82;73.47
63700;BME280;49845;47.130;142.766;2023-02-12T01:21:59;100940.94;;;-8.66;74.24
63700;BME280;49845;47.130;142.766;2023-02-12T01:24:30;100936.34;;;-8.60;73.69
63700;BME280;49845;47.130;142.766;2023-02-12T01:27:03;100951.50;;;-8.49;73.49
63700;BME280;49845;47.130;142.766;2023-02-12T01:29:34;100890.97;;;-8.81;73.41
63700;BME280;49845;47.130;142.766;2023-02-12T01:32:04;100930.94;;;-8.53;73.68
63700;BME280;49845;47.130;142.766;2023-02-12T01:34:35;100934.56;;;-8.61;73.13
63700;BME280;49845;47.130;142.766;2023-02-12T01:37:07;100929.72;;;-8.58;73.69
63700;BME280;49845;47.130;142.766;2023-02-12T01:39:39;100845.84;;;-9.22;73.79
63700;BME280;49845;47.130;142.766;2023-02-12T01:42:12;100916.50;;;-8.66;74.46
63700;BME280;49845;47.130;142.766;2023-02-12T01:44:44;100867.06;;;-8.73;74.09
63700;BME280;49845;47.130;142.766;2023-02-12T01:47:16;100908.97;;;-8.41;73.63
63700;BME280;49845;47.130;142.766;2023-02-12T01:49:48;100906.00;;;-8.22;73.70
63700;BME280;49845;47.130;142.766;2023-02-12T01:52:23;100908.16;;;-8.03;72.90
63700;BME280;49845;47.130;142.766;2023-02-12T01:54:58;100896.81;;;-8.08;71.96
63700;BME280;49845;47.130;142.766;2023-02-12T01:57:32;100907.66;;;-7.86;72.42
63700;BME280;49845;47.130;142.766;2023-02-12T02:00:06;100901.69;;;-7.61;71.42
63700;BME280;49845;47.130;142.766;2023-02-12T02:02:38;100904.63;;;-7.55;71.06
63700;BME280;49845;47.130;142.766;2023-02-12T02:05:09;100899.72;;;-7.52;70.21
63700;BME280;49845;47.130;142.766;2023-02-12T02:07:44;100891.34;;;-7.51;70.56
63700;BME280;49845;47.130;142.766;2023-02-12T02:10:16;100890.66;;;-7.87;70.36
63700;BME280;49845;47.130;142.766;2023-02-12T02:12:46;100892.44;;;-7.86;70.96
63700;BME280;49845;47.130;142.766;2023-02-12T02:15:34;100880.31;;;-7.90;70.81
63700;BME280;49845;47.130;142.766;2023-02-12T02:18:08;100889.53;;;-7.78;70.89
63700;BME280;49845;47.130;142.766;2023-02-12T02:20:54;100868.13;;;-7.82;70.71
63700;BME280;49845;47.130;142.766;2023-02-12T02:27:16;100887.09;;;-8.02;71.27
63700;BME280;49845;47.130;142.766;2023-02-12T02:30:22;100877.41;;;-7.83;71.03
63700;BME280;49845;47.130;142.766;2023-02-12T02:33:08;100867.66;;;-7.76;70.96
63700;BME280;49845;47.130;142.766;2023-02-12T02:35:46;100879.41;;;-7.65;70.80
63700;BME280;49845;47.130;142.766;2023-02-12T02:38:30;100862.81;;;-7.60;70.65
63700;BME280;49845;47.130;142.766;2023-02-12T02:41:05;100870.91;;;-7.66;70.14
63700;BME280;49845;47.130;142.766;2023-02-12T02:43:42;100855.78;;;-7.64;70.50
63700;BME280;49845;47.130;142.766;2023-02-12T02:46:18;100841.34;;;-7.65;70.55
63700;BME280;49845;47.130;142.766;2023-02-12T02:48:53;100849.53;;;-7.69;70.30
63700;BME280;49845;47.130;142.766;2023-02-12T02:51:29;100825.31;;;-7.77;70.39
63700;BME280;49845;47.130;142.766;2023-02-12T02:54:04;100833.28;;;-7.85;70.76
63700;BME280;49845;47.130;142.766;2023-02-12T02:56:39;100827.81;;;-7.91;70.90
63700;BME280;49845;47.130;142.766;2023-02-12T02:59:16;100828.03;;;-7.88;71.27
63700;BME280;49845;47.130;142.766;2023-02-12T03:01:53;100743.34;;;-8.41;70.59
63700;BME280;49845;47.130;142.766;2023-02-12T03:04:29;100773.34;;;-8.34;71.18
63700;BME280;49845;47.130;142.766;2023-02-12T03:07:05;100833.44;;;-8.08;71.74
63700;BME280;49845;47.130;142.766;2023-02-12T03:09:42;100826.03;;;-7.92;72.05
63700;BME280;49845;47.130;142.766;2023-02-12T03:12:17;100740.31;;;-8.36;71.71
63700;BME280;49845;47.130;142.766;2023-02-12T03:14:53;100815.75;;;-8.07;71.79
63700;BME280;49845;47.130;142.766;2023-02-12T03:17:30;100833.34;;;-7.96;71.85
63700;BME280;49845;47.130;142.766;2023-02-12T03:20:07;100820.59;;;-7.98;72.51
63700;BME280;49845;47.130;142.766;2023-02-12T03:22:42;100820.81;;;-7.82;72.34
63700;BME280;49845;47.130;142.766;2023-02-12T03:25:17;100819.06;;;-7.69;72.64
63700;BME280;49845;47.130;142.766;2023-02-12T03:27:55;100759.72;;;-7.98;71.79
63700;BME280;49845;47.130;142.766;2023-02-12T03:30:35;100819.78;;;-7.45;71.67
63700;BME280;49845;47.130;142.766;2023-02-12T03:33:17;100814.63;;;-7.33;71.31
63700;BME280;49845;47.130;142.766;2023-02-12T03:35:55;100772.81;;;-7.52;71.47
63700;BME280;49845;47.130;142.766;2023-02-12T03:38:35;100820.09;;;-7.27;71.03
63700;BME280;49845;47.130;142.766;2023-02-12T03:41:13;100708.56;;;-8.04;71.16
63700;BME280;49845;47.130;142.766;2023-02-12T03:43:49;100816.94;;;-7.50;71.76
63700;BME280;49845;47.130;142.766;2023-02-12T03:46:26;100816.66;;;-7.68;71.99
63700;BME280;49845;47.130;142.766;2023-02-12T03:49:08;100813.31;;;-7.67;72.65
63700;BME280;49845;47.130;142.766;2023-02-12T03:51:41;100809.13;;;-7.66;72.61
63700;BME280;49845;47.130;142.766;2023-02-12T03:54:16;100810.69;;;-7.68;71.96
63700;BME280;49845;47.130;142.766;2023-02-12T03:56:51;100801.69;;;-7.76;72.17
63700;BME280;49845;47.130;142.766;2023-02-12T03:59:23;100759.34;;;-7.91;72.60
63700;BME280;49845;47.130;142.766;2023-02-12T04:01:57;100805.25;;;-7.48;72.03
63700;BME280;49845;47.130;142.766;2023-02-12T04:04:30;100803.28;;;-7.25;72.63
63700;BME280;49845;47.130;142.766;2023-02-12T04:07:01;100776.16;;;-7.40;71.38
63700;BME280;49845;47.130;142.766;2023-02-12T04:09:31;100810.50;;;-7.31;71.76
63700;BME280;49845;47.130;142.766;2023-02-12T04:12:11;100806.59;;;-7.40;71.89
63700;BME280;49845;47.130;142.766;2023-02-12T04:14:50;100804.00;;;-7.41;72.01
63700;BME280;49845;47.130;142.766;2023-02-12T04:17:29;100800.97;;;-7.35;72.07
63700;BME280;49845;47.130;142.766;2023-02-12T04:20:10;100802.13;;;-7.44;72.69
63700;BME280;49845;47.130;142.766;2023-02-12T04:22:52;100808.53;;;-7.49;72.61
63700;BME280;49845;47.130;142.766;2023-02-12T04:25:36;100803.69;;;-7.46;72.56
63700;BME280;49845;47.130;142.766;2023-02-12T04:28:20;100803.00;;;-7.43;72.32
63700;BME280;49845;47.130;142.766;2023-02-12T04:30:57;100773.91;;;-7.48;72.65
63700;BME280;49845;47.130;142.766;2023-02-12T04:33:34;100798.41;;;-7.22;72.28
63700;BME280;49845;47.130;142.766;2023-02-12T04:36:13;100784.72;;;-7.24;72.30
63700;BME280;49845;47.130;142.766;2023-02-12T04:38:49;100804.44;;;-7.07;72.26
63700;BME280;49845;47.130;142.766;2023-02-12T04:41:20;100799.84;;;-6.86;72.27
63700;BME280;49845;47.130;142.766;2023-02-12T04:43:51;100799.09;;;-6.70;71.71
63700;BME280;49845;47.130;142.766;2023-02-12T04:46:22;100806.84;;;-6.82;70.85
63700;BME280;49845;47.130;142.766;2023-02-12T04:48:54;100798.34;;;-6.82;70.70
63700;BME280;49845;47.130;142.766;2023-02-12T04:51:26;100807.94;;;-6.78;70.29
63700;BME280;49845;47.130;142.766;2023-02-12T04:53:57;100775.53;;;-7.09;70.23
63700;BME280;49845;47.130;142.766;2023-02-12T04:56:27;100802.88;;;-7.05;70.75
63700;BME280;49845;47.130;142.766;2023-02-12T04:58:58;100797.03;;;-7.17;71.53
63700;BME280;49845;47.130;142.766;2023-02-12T05:01:28;100768.34;;;-7.43;71.57
63700;BME280;49845;47.130;142.766;2023-02-12T05:03:58;100807.00;;;-7.33;71.97
63700;BME280;49845;47.130;142.766;2023-02-12T05:06:32;100803.09;;;-7.55;72.02
63700;BME280;49845;47.130;142.766;2023-02-12T05:09:04;100808.72;;;-7.72;72.20
63700;BME280;49845;47.130;142.766;2023-02-12T05:11:35;100810.00;;;-7.66;72.54
63700;BME280;49845;47.130;142.766;2023-02-12T05:14:05;100820.84;;;-7.42;72.89
63700;BME280;49845;47.130;142.766;2023-02-12T05:16:36;100818.44;;;-7.40;72.41
63700;BME280;49845;47.130;142.766;2023-02-12T05:19:06;100833.16;;;-7.34;72.28
63700;BME280;49845;47.130;142.766;2023-02-12T05:21:39;100830.06;;;-7.30;72.47
63700;BME280;49845;47.130;142.766;2023-02-12T05:24:09;100823.50;;;-7.40;72.49
63700;BME280;49845;47.130;142.766;2023-02-12T05:26:40;100824.69;;;-7.48;72.90
63700;BME280;49845;47.130;142.766;2023-02-12T05:29:10;100813.44;;;-7.52;73.38
63700;BME280;49845;47.130;142.766;2023-02-12T05:31:41;100835.13;;;-7.44;73.78
63700;BME280;49845;47.130;142.766;2023-02-12T05:34:12;100827.00;;;-7.65;73.83
63700;BME280;49845;47.130;142.766;2023-02-12T05:36:45;100829.59;;;-7.76;74.96
63700;BME280;49845;47.130;142.766;2023-02-12T05:39:15;100841.47;;;-7.89;75.64
63700;BME280;49845;47.130;142.766;2023-02-12T05:41:46;100839.72;;;-7.90;75.33
63700;BME280;49845;47.130;142.766;2023-02-12T05:44:16;100840.88;;;-7.98;75.59
63700;BME280;49845;47.130;142.766;2023-02-12T05:46:47;100840.25;;;-8.07;76.45
63700;BME280;49845;47.130;142.766;2023-02-12T05:49:17;100826.91;;;-8.30;76.39
63700;BME280;49845;47.130;142.766;2023-02-12T05:51:49;100847.81;;;-8.20;76.19
63700;BME280;49845;47.130;142.766;2023-02-12T05:54:20;100814.59;;;-8.37;76.71
63700;BME280;49845;47.130;142.766;2023-02-12T05:56:50;100833.47;;;-8.20;76.67
63700;BME280;49845;47.130;142.766;2023-02-12T05:59:22;100840.56;;;-8.28;76.15
63700;BME280;49845;47.130;142.766;2023-02-12T06:01:52;100852.91;;;-8.32;75.99
63700;BME280;49845;47.130;142.766;2023-02-12T06:04:24;100846.78;;;-8.36;77.00
63700;BME280;49845;47.130;142.766;2023-02-12T06:06:58;100853.91;;;-8.30;76.91
63700;BME280;49845;47.130;142.766;2023-02-12T06:09:29;100857.13;;;-8.33;76.95
63700;BME280;49845;47.130;142.766;2023-02-12T06:12:00;100861.03;;;-8.25;77.30
63700;BME280;49845;47.130;142.766;2023-02-12T06:14:31;100855.78;;;-8.28;76.88
63700;BME280;49845;47.130;142.766;2023-02-12T06:17:01;100857.31;;;-8.30;77.10
63700;BME280;49845;47.130;142.766;2023-02-12T06:19:33;100859.66;;;-8.33;77.18
63700;BME280;49845;47.130;142.766;2023-02-12T06:22:05;100853.22;;;-8.41;77.01
63700;BME280;49845;47.130;142.766;2023-02-12T06:24:35;100859.84;;;-8.43;77.33
63700;BME280;49845;47.130;142.766;2023-02-12T06:27:06;100857.66;;;-8.50;77.48
63700;BME280;49845;47.130;142.766;2023-02-12T06:29:39;100860.72;;;-8.54;77.67
63700;BME280;49845;47.130;142.766;2023-02-12T06:32:10;100859.19;;;-8.52;77.73
63700;BME280;49845;47.130;142.766;2023-02-12T06:34:42;100845.97;;;-8.48;77.76
63700;BME280;49845;47.130;142.766;2023-02-12T06:37:14;100856.44;;;-8.55;77.55
63700;BME280;49845;47.130;142.766;2023-02-12T06:39:45;100806.81;;;-8.77;77.31
63700;BME280;49845;47.130;142.766;2023-02-12T06:42:15;100846.66;;;-8.62;77.49
63700;BME280;49845;47.130;142.766;2023-02-12T06:44:46;100853.06;;;-8.68;77.37
63700;BME280;49845;47.130;142.766;2023-02-12T06:47:19;100820.94;;;-8.92;77.37
63700;BME280;49845;47.130;142.766;2023-02-12T06:49:49;100861.22;;;-8.72;77.44
63700;BME280;49845;47.130;142.766;2023-02-12T06:52:21;100858.13;;;-8.79;77.33
63700;BME280;49845;47.130;142.766;2023-02-12T06:54:52;100885.25;;;-8.90;77.17
63700;BME280;49845;47.130;142.766;2023-02-12T06:57:23;100865.88;;;-9.01;76.82
63700;BME280;49845;47.130;142.766;2023-02-12T06:59:53;100866.31;;;-9.19;76.82
63700;BME280;49845;47.130;142.766;2023-02-12T07:02:24;100869.59;;;-9.31;77.40
63700;BME280;49845;47.130;142.766;2023-02-12T07:04:54;100868.72;;;-9.44;77.57
63700;BME280;49845;47.130;142.766;2023-02-12T07:07:27;100862.53;;;-9.59;77.77
63700;BME280;49845;47.130;142.766;2023-02-12T07:09:57;100876.63;;;-9.63;78.08
63700;BME280;49845;47.130;142.766;2023-02-12T07:12:28;100872.19;;;-9.77;78.13
63700;BME280;49845;47.130;142.766;2023-02-12T07:14:58;100852.56;;;-9.91;78.31
63700;BME280;49845;47.130;142.766;2023-02-12T07:17:32;100877.63;;;-9.94;78.63
63700;BME280;49845;47.130;142.766;2023-02-12T07:20:03;100876.50;;;-10.10;78.89
63700;BME280;49845;47.130;142.766;2023-02-12T07:22:37;100874.47;;;-10.14;78.94
63700;BME280;49845;47.130;142.766;2023-02-12T07:25:07;100885.25;;;-10.16;79.16
63700;BME280;49845;47.130;142.766;2023-02-12T07:27:38;100879.31;;;-10.17;79.22
63700;BME280;49845;47.130;142.766;2023-02-12T07:30:09;100887.78;;;-10.16;79.04
63700;BME280;49845;47.130;142.766;2023-02-12T07:32:40;100887.91;;;-10.15;79.08
63700;BME280;49845;47.130;142.766;2023-02-12T07:35:10;100888.34;;;-10.09;79.10
63700;BME280;49845;47.130;142.766;2023-02-12T07:37:46;100880.38;;;-10.25;78.66
63700;BME280;49845;47.130;142.766;2023-02-12T07:40:16;100888.53;;;-10.29;78.55
63700;BME280;49845;47.130;142.766;2023-02-12T07:42:47;100737.75;;;-11.18;78.37
63700;BME280;49845;47.130;142.766;2023-02-12T07:45:22;100880.78;;;-10.43;78.47
63700;BME280;49845;47.130;142.766;2023-02-12T07:47:53;100883.81;;;-10.47;78.48
63700;BME280;49845;47.130;142.766;2023-02-12T07:50:23;100888.63;;;-10.50;78.49
63700;BME280;49845;47.130;142.766;2023-02-12T07:52:56;100895.50;;;-10.59;78.38
63700;BME280;49845;47.130;142.766;2023-02-12T07:55:26;100907.88;;;-10.62;78.29
63700;BME280;49845;47.130;142.766;2023-02-12T07:57:56;100905.88;;;-10.66;78.52
63700;BME280;49845;47.130;142.766;2023-02-12T08:00:27;100920.06;;;-10.78;78.30
63700;BME280;49845;47.130;142.766;2023-02-12T08:02:57;100909.28;;;-10.98;78.13
63700;BME280;49845;47.130;142.766;2023-02-12T08:05:31;100922.19;;;-11.15;78.47
63700;BME280;49845;47.130;142.766;2023-02-12T08:08:03;100919.94;;;-11.22;78.78
63700;BME280;49845;47.130;142.766;2023-02-12T08:10:36;100928.78;;;-11.27;78.70
63700;BME280;49845;47.130;142.766;2023-02-12T08:13:06;100843.00;;;-11.90;78.94
63700;BME280;49845;47.130;142.766;2023-02-12T08:15:37;100940.41;;;-11.40;79.59
63700;BME280;49845;47.130;142.766;2023-02-12T08:18:09;100943.66;;;-11.41;80.08
63700;BME280;49845;47.130;142.766;2023-02-12T08:20:41;100899.31;;;-11.69;80.75
63700;BME280;49845;47.130;142.766;2023-02-12T08:23:14;100944.91;;;-11.46;81.99
63700;BME280;49845;47.130;142.766;2023-02-12T08:25:45;100949.47;;;-11.52;82.35
63700;BME280;49845;47.130;142.766;2023-02-12T08:28:17;100944.69;;;-11.49;82.49
63700;BME280;49845;47.130;142.766;2023-02-12T08:30:49;100946.19;;;-11.51;82.40
63700;BME280;49845;47.130;142.766;2023-02-12T08:33:20;100904.09;;;-11.73;82.49
63700;BME280;49845;47.130;142.766;2023-02-12T08:36:00;100940.41;;;-11.50;82.39
63700;BME280;49845;47.130;142.766;2023-02-12T08:38:34;100942.94;;;-11.50;82.44
63700;BME280;49845;47.130;142.766;2023-02-12T08:41:08;100945.44;;;-11.50;82.59
63700;BME280;49845;47.130;142.766;2023-02-12T08:43:41;100950.97;;;-11.54;82.81
63700;BME280;49845;47.130;142.766;2023-02-12T08:46:14;100935.09;;;-11.63;82.97
63700;BME280;49845;47.130;142.766;2023-02-12T08:48:46;100911.03;;;-11.80;83.53
63700;BME280;49845;47.130;142.766;2023-02-12T08:51:19;100951.47;;;-11.68;83.72
63700;BME280;49845;47.130;142.766;2023-02-12T08:53:54;100934.84;;;-11.66;83.79
63700;BME280;49845;47.130;142.766;2023-02-12T08:56:27;100905.38;;;-11.78;83.70
63700;BME280;49845;47.130;142.766;2023-02-12T08:59:01;100936.47;;;-11.57;83.87
63700;BME280;49845;47.130;142.766;2023-02-12T09:01:35;100940.91;;;-11.54;83.77
63700;BME280;49845;47.130;142.766;2023-02-12T09:04:14;100948.84;;;-11.49;83.84
63700;BME280;49845;47.130;142.766;2023-02-12T09:06:46;100943.03;;;-11.38;83.83
63700;BME280;49845;47.130;142.766;2023-02-12T09:09:19;100949.47;;;-11.32;83.80
63700;BME280;49845;47.130;142.766;2023-02-12T09:11:51;100948.09;;;-11.28;83.79
63700;BME280;49845;47.130;142.766;2023-02-12T09:14:22;100939.88;;;-11.25;83.79
63700;BME280;49845;47.130;142.766;2023-02-12T09:16:54;100959.53;;;-11.21;83.47
63700;BME280;49845;47.130;142.766;2023-02-12T09:19:26;100965.59;;;-11.19;83.11
63700;BME280;49845;47.130;142.766;2023-02-12T09:21:58;100901.81;;;-11.59;82.90
63700;BME280;49845;47.130;142.766;2023-02-12T09:24:31;100976.31;;;-11.22;82.45
63700;BME280;49845;47.130;142.766;2023-02-12T09:27:03;100957.53;;;-11.36;82.07
63700;BME280;49845;47.130;142.766;2023-02-12T09:29:34;100885.47;;;-11.95;82.02
63700;BME280;49845;47.130;142.766;2023-02-12T09:32:06;100970.91;;;-11.37;81.89
63700;BME280;49845;47.130;142.766;2023-02-12T09:34:39;100973.44;;;-11.47;81.55
63700;BME280;49845;47.130;142.766;2023-02-12T09:37:10;100969.25;;;-11.67;80.75
63700;BME280;49845;47.130;142.766;2023-02-12T09:39:44;100975.19;;;-11.87;80.75
63700;BME280;49845;47.130;142.766;2023-02-12T09:42:29;100964.03;;;-12.20;79.79
63700;BME280;49845;47.130;142.766;2023-02-12T09:45:11;100965.66;;;-12.60;79.77
63700;BME280;49845;47.130;142.766;2023-02-12T09:47:53;100960.84;;;-12.86;80.36
63700;BME280;49845;47.130;142.766;2023-02-12T09:50:32;100943.63;;;-13.10;80.58
63700;BME280;49845;47.130;142.766;2023-02-12T09:53:11;100967.97;;;-13.19;80.72
63700;BME280;49845;47.130;142.766;2023-02-12T09:55:45;100961.31;;;-13.38;80.63
63700;BME280;49845;47.130;142.766;2023-02-12T09:58:21;100965.47;;;-13.38;80.76
63700;BME280;49845;47.130;142.766;2023-02-12T10:00:54;100907.53;;;-13.86;80.19
63700;BME280;49845;47.130;142.766;2023-02-12T10:03:27;100962.97;;;-13.66;80.74
63700;BME280;49845;47.130;142.766;2023-02-12T10:06:03;100953.69;;;-13.95;81.20
63700;BME280;49845;47.130;142.766;2023-02-12T10:08:48;100925.31;;;-13.94;81.31
63700;BME280;49845;47.130;142.766;2023-02-12T10:11:39;100964.19;;;-13.71;81.78
63700;BME280;49845;47.130;142.766;2023-02-12T10:14:43;100955.03;;;-13.71;81.79
63700;BME280;49845;47.130;142.766;2023-02-12T10:17:25;100969.81;;;-13.74;81.52
63700;BME280;49845;47.130;142.766;2023-02-12T10:20:13;100959.44;;;-13.96;81.30
63700;BME280;49845;47.130;142.766;2023-02-12T10:22:57;100984.38;;;-13.88;81.38
63700;BME280;49845;47.130;142.766;2023-02-12T10:25:38;100974.31;;;-13.88;81.25
63700;BME280;49845;47.130;142.766;2023-02-12T10:28:16;100962.34;;;-14.10;80.45
63700;BME280;49845;47.130;142.766;2023-02-12T10:30:52;100976.06;;;-14.15;80.21
63700;BME280;49845;47.130;142.766;2023-02-12T10:33:28;100976.53;;;-14.19;80.16
63700;BME280;49845;47.130;142.766;2023-02-12T10:36:13;100942.41;;;-14.53;80.00
63700;BME280;49845;47.130;142.766;2023-02-12T10:38:51;100939.78;;;-14.64;79.48
63700;BME280;49845;47.130;142.766;2023-02-12T10:41:27;100978.03;;;-14.66;79.39
63700;BME280;49845;47.130;142.766;2023-02-12T10:44:03;100997.50;;;-14.81;79.19
63700;BME280;49845;47.130;142.766;2023-02-12T10:46:34;100990.59;;;-15.01;79.20
63700;BME280;49845;47.130;142.766;2023-02-12T10:49:09;100987.94;;;-15.11;79.05
63700;BME280;49845;47.130;142.766;2023-02-12T10:51:59;100970.22;;;-15.39;78.85
63700;BME280;49845;47.130;142.766;2023-02-12T10:54:42;100979.97;;;-15.42;78.73
63700;BME280;49845;47.130;142.766;2023-02-12T10:57:18;100988.66;;;-15.47;78.36
63700;BME280;49845;47.130;142.766;2023-02-12T10:59:54;100990.84;;;-15.50;78.22
63700;BME280;49845;47.130;142.766;2023-02-12T11:02:29;101017.63;;;-15.67;78.64
63700;BME280;49845;47.130;142.766;2023-02-12T11:05:21;101003.34;;;-15.50;79.53
63700;BME280;49845;47.130;142.766;2023-02-12T11:07:53;100937.22;;;-15.70;80.12
63700;BME280;49845;47.130;142.766;2023-02-12T11:10:29;101009.75;;;-15.10;80.24
63700;BME280;49845;47.130;142.766;2023-02-12T11:13:02;101011.41;;;-14.85;80.22
63700;BME280;49845;47.130;142.766;2023-02-12T11:15:45;101017.13;;;-14.68;79.84
63700;BME280;49845;47.130;142.766;2023-02-12T11:18:22;100877.66;;;-15.46;78.67
63700;BME280;49845;47.130;142.766;2023-02-12T11:20:57;100985.72;;;-15.08;77.20
63700;BME280;49845;47.130;142.766;2023-02-12T11:23:32;100990.00;;;-15.25;76.01
63700;BME280;49845;47.130;142.766;2023-02-12T11:26:05;101008.00;;;-15.11;76.14
63700;BME280;49845;47.130;142.766;2023-02-12T11:28:38;101011.53;;;-15.09;75.81
63700;BME280;49845;47.130;142.766;2023-02-12T11:31:25;100963.13;;;-15.43;75.89
63700;BME280;49845;47.130;142.766;2023-02-12T11:34:09;101005.16;;;-15.49;75.80
63700;BME280;49845;47.130;142.766;2023-02-12T11:36:45;100998.47;;;-15.75;76.03
63700;BME280;49845;47.130;142.766;2023-02-12T11:39:20;101005.56;;;-15.71;76.83
63700;BME280;49845;47.130;142.766;2023-02-12T11:41:54;100887.56;;;-16.33;77.00
63700;BME280;49845;47.130;142.766;2023-02-12T11:44:29;100983.44;;;-15.83;76.50
63700;BME280;49845;47.130;142.766;2023-02-12T11:47:08;100990.13;;;-16.09;75.81
63700;BME280;49845;47.130;142.766;2023-02-12T11:49:43;101000.91;;;-16.34;75.39
63700;BME280;49845;47.130;142.766;2023-02-12T11:52:20;100965.91;;;-16.83;75.81
63700;BME280;49845;47.130;142.766;2023-02-12T11:54:55;100999.34;;;-16.49;76.43
63700;BME280;49845;47.130;142.766;2023-02-12T11:57:38;101004.69;;;-16.38;76.52
63700;BME280;49845;47.130;142.766;2023-02-12T12:00:17;100975.25;;;-16.40;76.29
63700;BME280;49845;47.130;142.766;2023-02-12T12:02:55;100989.94;;;-16.43;75.57
63700;BME280;49845;47.130;142.766;2023-02-12T12:05:33;100980.47;;;-16.55;75.52
63700;BME280;49845;47.130;142.766;2023-02-12T12:08:14;101001.72;;;-16.42;75.76
63700;BME280;49845;47.130;142.766;2023-02-12T12:10:53;101001.72;;;-16.42;75.68
63700;BME280;49845;47.130;142.766;2023-02-12T12:13:31;101021.53;;;-16.28;76.07
63700;BME280;49845;47.130;142.766;2023-02-12T12:16:09;101027.69;;;-16.33;75.75
63700;BME280;49845;47.130;142.766;2023-02-12T12:19:04;101033.00;;;-16.30;76.55
63700;BME280;49845;47.130;142.766;2023-02-12T12:22:02;100901.41;;;-16.94;76.43
63700;BME280;49845;47.130;142.766;2023-02-12T12:24:38;101041.34;;;-16.14;76.57
63700;BME280;49845;47.130;142.766;2023-02-12T12:27:18;101033.91;;;-16.29;75.77
63700;BME280;49845;47.130;142.766;2023-02-12T12:30:17;101027.97;;;-16.30;75.20
63700;BME280;49845;47.130;142.766;2023-02-12T12:32:52;101021.03;;;-16.57;74.37
63700;BME280;49845;47.130;142.766;2023-02-12T12:35:35;101038.41;;;-16.59;74.29
63700;BME280;49845;47.130;142.766;2023-02-12T12:38:19;101036.84;;;-16.74;74.69
63700;BME280;49845;47.130;142.766;2023-02-12T12:41:01;101031.84;;;-16.74;75.12
63700;BME280;49845;47.130;142.766;2023-02-12T12:43:44;101023.38;;;-16.92;75.16
63700;BME280;49845;47.130;142.766;2023-02-12T12:46:44;101040.59;;;-16.86;75.44
63700;BME280;49845;47.130;142.766;2023-02-12T12:49:34;101039.94;;;-16.92;76.14
63700;BME280;49845;47.130;142.766;2023-02-12T12:52:37;101042.66;;;-17.07;76.61
63700;BME280;49845;47.130;142.766;2023-02-12T12:55:15;101048.59;;;-17.13;77.05
63700;BME280;49845;47.130;142.766;2023-02-12T12:58:00;101045.47;;;-17.04;77.46
63700;BME280;49845;47.130;142.766;2023-02-12T13:00:44;101027.50;;;-17.24;76.83
63700;BME280;49845;47.130;142.766;2023-02-12T13:06:47;101044.47;;;-17.13;76.90
63700;BME280;49845;47.130;142.766;2023-02-12T13:09:40;101043.19;;;-17.25;77.39
63700;BME280;49845;47.130;142.766;2023-02-12T13:12:40;101032.97;;;-17.35;77.80